Time;durP1;ratioP1;P1;durP2;ratioP2;P2;SDS_P1;SDS_P2;PMS_P1;PMS_P2;Temp;Humidity;BMP_temperature;BMP_pressure;BME280_temperature;BME280_humidity;BME280_pressure;Samples;Min_cycle;Max_cycle;Signal;HPM_P1;HPM_P2
2023/10/07 00:02:12;;;;;;;10.00;6.10;;;;;;;14.30;58.80;99600.47;7053052;28;20227;-85
2023/10/07 00:05:35;;;;;;;10.47;6.10;;;;;;;14.30;58.46;99608.63;7058572;28;20220;-87
2023/10/07 00:08:58;;;;;;;8.77;5.73;;;;;;;14.14;59.01;99595.44;7048193;28;20209;-84
2023/10/07 00:12:19;;;;;;;11.87;6.50;;;;;;;14.07;59.41;99568.34;7051273;28;20227;-85
2023/10/07 00:15:43;;;;;;;8.87;6.20;;;;;;;13.94;59.67;99597.31;7046736;28;20293;-86
2023/10/07 00:19:07;;;;;;;9.80;6.23;;;;;;;14.18;59.59;99599.41;7049887;28;20216;-86
2023/10/07 00:22:40;;;;;;;11.17;6.60;;;;;;;13.64;59.57;99520.97;7061737;28;20224;-86
2023/10/07 00:26:07;;;;;;;9.93;6.97;;;;;;;13.90;59.99;99598.75;7056377;28;20228;-86
2023/10/07 00:29:39;;;;;;;10.87;6.20;;;;;;;13.99;59.51;99583.97;7053649;28;20195;-86
2023/10/07 00:33:02;;;;;;;9.70;5.87;;;;;;;14.38;58.54;99584.81;7081936;28;20196;-87
2023/10/07 00:36:41;;;;;;;9.40;5.93;;;;;;;14.31;58.65;99594.00;7067354;28;20256;-88
2023/10/07 00:40:14;;;;;;;7.80;5.90;;;;;;;13.80;59.50;99579.38;7077891;28;20209;-87
2023/10/07 00:43:36;;;;;;;8.97;6.37;;;;;;;13.71;60.25;99597.72;7041763;28;20204;-86
2023/10/07 00:47:12;;;;;;;8.40;5.90;;;;;;;14.05;59.47;99602.13;7058261;28;20207;-85
2023/10/07 00:50:34;;;;;;;9.90;6.27;;;;;;;13.91;59.18;99595.00;7062746;28;20260;-85
2023/10/07 00:54:06;;;;;;;9.77;6.20;;;;;;;14.00;59.30;99604.63;7053925;28;20239;-86
2023/10/07 00:57:35;;;;;;;9.97;6.70;;;;;;;13.78;59.44;99600.41;7047501;28;20219;-86
2023/10/07 01:00:56;;;;;;;11.13;6.70;;;;;;;13.96;59.10;99589.78;7062233;28;20646;-86
2023/10/07 01:04:20;;;;;;;10.10;6.30;;;;;;;13.86;58.89;99582.06;7052058;28;20308;-86
2023/10/07 01:07:46;;;;;;;10.27;5.83;;;;;;;13.68;59.73;99562.06;7044618;28;20245;-85
2023/10/07 01:11:19;;;;;;;10.03;6.40;;;;;;;13.99;59.36;99567.72;7063420;28;20207;-86
2023/10/07 01:14:46;;;;;;;9.10;6.03;;;;;;;13.65;59.19;99557.88;7047013;28;20766;-85
2023/10/07 01:18:13;;;;;;;9.80;6.50;;;;;;;13.39;60.09;99560.53;7054692;28;20702;-85
2023/10/07 01:21:39;;;;;;;9.50;6.23;;;;;;;13.16;60.84;99561.94;7049568;28;20233;-86
2023/10/07 01:25:06;;;;;;;9.33;6.17;;;;;;;13.45;60.54;99550.75;7051908;28;20297;-85
2023/10/07 01:28:32;;;;;;;11.17;6.37;;;;;;;13.50;60.91;99542.81;7055537;28;20285;-86
2023/10/07 01:32:00;;;;;;;9.33;6.47;;;;;;;13.72;60.26;99538.91;7055074;28;20224;-85
2023/10/07 01:35:26;;;;;;;10.03;6.47;;;;;;;13.64;59.84;99550.78;7047463;28;20239;-86
2023/10/07 01:38:51;;;;;;;10.23;6.07;;;;;;;13.37;60.68;99531.97;7048198;28;20205;-86
2023/10/07 01:42:22;;;;;;;9.20;5.77;;;;;;;13.68;60.10;99535.78;7043972;28;20223;-86
2023/10/07 01:45:43;;;;;;;8.33;5.77;;;;;;;13.71;59.80;99545.38;7064764;28;20284;-87
2023/10/07 01:49:11;;;;;;;12.53;5.83;;;;;;;13.67;60.25;99535.97;7060346;28;20204;-86
2023/10/07 01:52:32;;;;;;;8.20;5.80;;;;;;;13.60;60.66;99535.13;7065162;28;20265;-86
2023/10/07 01:55:54;;;;;;;9.23;6.57;;;;;;;13.89;59.44;99529.31;7065504;28;20240;-85
2023/10/07 01:59:18;;;;;;;8.57;6.10;;;;;;;13.49;60.01;99539.31;7060716;28;20204;-85
2023/10/07 02:02:48;;;;;;;8.20;6.07;;;;;;;13.80;59.75;99539.53;7062181;28;20216;-85
2023/10/07 02:06:11;;;;;;;11.37;6.23;;;;;;;13.55;59.91;99545.75;7059168;28;20224;-87
2023/10/07 02:09:36;;;;;;;7.43;5.70;;;;;;;13.57;59.84;99549.13;7060807;28;20208;-86
2023/10/07 02:12:57;;;;;;;9.17;5.50;;;;;;;13.49;60.20;99555.56;7051703;28;20208;-85
2023/10/07 02:16:20;;;;;;;11.27;6.00;;;;;;;13.42;60.37;99562.00;7064454;28;20258;-85
2023/10/07 02:19:43;;;;;;;9.10;5.80;;;;;;;13.01;60.71;99521.47;7062177;28;20215;-85
2023/10/07 02:23:12;;;;;;;11.57;6.67;;;;;;;13.56;59.75;99559.09;7056668;28;20205;-86
2023/10/07 02:26:33;;;;;;;10.70;6.67;;;;;;;13.94;58.92;99551.22;7056732;28;20584;-86
2023/10/07 02:29:57;;;;;;;9.83;6.13;;;;;;;13.76;58.78;99561.84;7056046;28;20702;-86
2023/10/07 02:33:21;;;;;;;9.40;6.33;;;;;;;13.22;59.39;99564.63;7051009;28;20200;-85
2023/10/07 02:36:52;;;;;;;8.07;5.93;;;;;;;13.00;59.60;99556.84;7058572;28;20859;-86
2023/10/07 02:40:19;;;;;;;7.97;5.47;;;;;;;13.35;59.82;99570.13;7064545;28;20215;-86
2023/10/07 02:43:43;;;;;;;9.30;5.77;;;;;;;13.41;59.51;99541.38;7052244;28;20212;-87
2023/10/07 02:47:11;;;;;;;9.07;6.20;;;;;;;13.57;59.89;99577.03;7059987;28;20322;-85
2023/10/07 02:50:39;;;;;;;10.13;6.57;;;;;;;13.24;60.10;99570.72;7047764;28;20593;-85
2023/10/07 02:54:06;;;;;;;9.43;6.27;;;;;;;13.54;60.13;99580.16;7064283;28;20231;-85
2023/10/07 02:57:39;;;;;;;8.53;5.97;;;;;;;13.67;59.49;99584.75;7058272;28;20230;-85
2023/10/07 03:01:11;;;;;;;10.90;6.40;;;;;;;13.52;59.67;99581.41;7066623;28;20212;-85
2023/10/07 03:04:34;;;;;;;8.43;6.27;;;;;;;13.71;59.26;99586.88;7057392;28;20227;-85
2023/10/07 03:08:02;;;;;;;8.83;5.87;;;;;;;13.75;59.19;99569.13;7058876;28;20211;-86
2023/10/07 03:11:24;;;;;;;8.73;6.30;;;;;;;13.70;58.92;99573.53;7055803;28;20284;-86
2023/10/07 03:14:45;;;;;;;8.73;5.60;;;;;;;13.88;58.85;99579.16;7063382;28;20224;-86
2023/10/07 03:18:20;;;;;;;9.07;6.33;;;;;;;13.32;59.04;99502.81;7067259;28;20291;-85
2023/10/07 03:22:07;;;;;;;8.47;6.03;;;;;;;13.84;57.97;99573.31;7062906;28;20207;-84
2023/10/07 03:25:51;;;;;;;11.90;6.20;;;;;;;13.78;58.20;99571.44;7061513;28;20715;-86
2023/10/07 03:29:27;;;;;;;9.60;5.87;;;;;;;14.08;57.69;99580.84;7060597;28;20226;-85
2023/10/07 03:32:55;;;;;;;9.60;5.97;;;;;;;13.41;59.46;99582.84;7061295;28;20206;-85
2023/10/07 03:36:45;;;;;;;9.40;6.57;;;;;;;13.24;59.65;99572.56;7047593;28;20231;-85
2023/10/07 03:40:25;;;;;;;9.50;6.63;;;;;;;13.43;59.64;99590.75;7066055;28;20230;-85
2023/10/07 03:43:48;;;;;;;9.70;6.03;;;;;;;13.68;58.69;99592.69;7058513;28;20674;-85
2023/10/07 03:47:10;;;;;;;8.33;6.27;;;;;;;13.78;58.27;99597.69;7052521;28;20211;-86
2023/10/07 03:50:34;;;;;;;8.30;5.93;;;;;;;13.71;58.61;99605.00;7067474;28;20579;-85
2023/10/07 03:54:00;;;;;;;10.27;5.77;;;;;;;13.77;58.46;99599.59;7066880;28;20224;-86
2023/10/07 03:57:22;;;;;;;9.13;5.77;;;;;;;13.71;58.05;99600.41;7065030;28;20223;-86
2023/10/07 04:00:46;;;;;;;8.87;6.47;;;;;;;13.60;57.57;99601.03;7068675;28;20290;-83
2023/10/07 04:04:11;;;;;;;10.40;6.23;;;;;;;13.01;58.45;99607.25;7059863;28;20220;-85
2023/10/07 04:07:33;;;;;;;7.70;5.47;;;;;;;13.36;57.71;99619.69;7053929;28;20197;-86
2023/10/07 04:10:54;;;;;;;9.73;6.40;;;;;;;13.02;57.41;99617.88;7059866;28;20269;-86
2023/10/07 04:14:27;;;;;;;10.90;5.77;;;;;;;12.90;58.39;99614.03;7041696;28;20270;-85
2023/10/07 04:17:52;;;;;;;8.43;5.97;;;;;;;12.84;58.89;99630.22;7038674;28;20292;-86
2023/10/07 04:21:14;;;;;;;8.57;6.13;;;;;;;12.73;58.44;99614.56;7065904;28;20204;-86
2023/10/07 04:24:38;;;;;;;8.90;5.57;;;;;;;12.78;58.80;99625.63;7058366;28;20224;-86
2023/10/07 04:28:06;;;;;;;11.60;5.80;;;;;;;12.83;58.11;99613.19;7055751;28;20208;-86
2023/10/07 04:31:34;;;;;;;10.57;6.87;;;;;;;12.50;59.04;99609.44;7043511;28;20528;-86
2023/10/07 04:35:16;;;;;;;11.27;7.13;;;;;;;12.70;58.83;99617.69;7054336;28;20228;-87
2023/10/07 04:38:52;;;;;;;9.03;6.23;;;;;;;12.64;59.46;99613.06;7051784;28;20216;-87
2023/10/07 04:42:20;;;;;;;12.60;5.90;;;;;;;12.51;59.50;99613.78;7056853;28;20217;-86
2023/10/07 04:45:49;;;;;;;10.10;6.47;;;;;;;12.46;58.81;99624.38;7054679;28;20224;-85
2023/10/07 04:49:14;;;;;;;11.13;6.43;;;;;;;11.86;60.84;99625.94;7056914;28;20281;-86
2023/10/07 04:52:40;;;;;;;8.33;5.83;;;;;;;12.37;60.82;99620.16;7048926;28;20211;-86
2023/10/07 04:56:02;;;;;;;7.83;5.50;;;;;;;12.81;59.08;99620.66;7056796;28;20224;-86
2023/10/07 04:59:24;;;;;;;12.57;5.93;;;;;;;12.37;59.14;99633.69;7057555;28;20678;-85
2023/10/07 05:02:46;;;;;;;10.33;5.70;;;;;;;12.43;59.76;99645.56;7062264;28;20240;-85
2023/10/07 05:06:10;;;;;;;8.73;6.77;;;;;;;12.76;58.62;99622.28;7058388;28;20590;-85
2023/10/07 05:09:33;;;;;;;9.10;6.30;;;;;;;12.67;56.88;99620.75;7067202;28;20218;-86
2023/10/07 05:12:55;;;;;;;8.93;6.13;;;;;;;12.50;58.32;99604.00;7051070;27;20262;-86
2023/10/07 05:16:16;;;;;;;7.40;5.37;;;;;;;12.68;57.82;99604.34;7059408;28;20224;-85
2023/10/07 05:19:38;;;;;;;9.77;5.87;;;;;;;12.55;58.53;99608.81;7053909;28;20258;-86
2023/10/07 05:23:04;;;;;;;8.23;5.90;;;;;;;12.32;59.29;99603.69;7064776;28;20294;-85
2023/10/07 05:26:26;;;;;;;8.63;6.40;;;;;;;11.90;59.56;99524.53;7061056;28;20687;-85
2023/10/07 05:29:48;;;;;;;9.13;6.43;;;;;;;12.15;59.99;99593.38;7062725;28;20582;-86
2023/10/07 05:33:10;;;;;;;8.50;5.80;;;;;;;11.88;60.50;99613.06;7059927;28;20227;-85
2023/10/07 05:36:32;;;;;;;9.17;5.70;;;;;;;12.28;59.99;99621.31;7062980;28;20225;-85
2023/10/07 05:39:54;;;;;;;9.23;6.30;;;;;;;12.37;59.92;99630.97;7058959;28;20724;-86
2023/10/07 05:43:17;;;;;;;8.47;6.57;;;;;;;11.78;59.40;99553.13;7069536;28;20216;-85
2023/10/07 05:46:39;;;;;;;10.30;6.93;;;;;;;12.86;58.16;99650.66;7063941;28;20224;-85
2023/10/07 05:50:00;;;;;;;12.97;7.77;;;;;;;12.79;57.28;99646.22;7064560;28;20201;-85
2023/10/07 05:53:23;;;;;;;11.13;7.20;;;;;;;12.40;56.20;99570.25;7064126;28;20345;-85
2023/10/07 05:56:47;;;;;;;7.93;5.67;;;;;;;12.82;55.93;99627.75;7063219;28;20767;-83
2023/10/07 06:00:13;;;;;;;6.80;5.50;;;;;;;12.46;57.60;99648.72;7054513;28;20273;-84
2023/10/07 06:03:36;;;;;;;8.87;6.23;;;;;;;12.25;58.73;99645.22;7044912;28;20204;-85
2023/10/07 06:06:58;;;;;;;13.53;6.57;;;;;;;11.82;59.04;99567.91;7041934;28;20283;-87
2023/10/07 06:10:20;;;;;;;9.13;5.53;;;;;;;12.54;57.99;99615.28;7039529;28;20219;-86
2023/10/07 06:13:44;;;;;;;9.13;5.90;;;;;;;11.96;59.95;99626.44;7037983;28;20322;-91
2023/10/07 06:17:07;;;;;;;10.77;5.40;;;;;;;11.47;62.60;99639.84;7045413;28;20220;-85
2023/10/07 06:20:37;;;;;;;11.47;6.27;;;;;;;12.41;60.51;99644.94;7077604;28;20189;-88
2023/10/07 06:23:59;;;;;;;8.50;6.07;;;;;;;12.78;59.32;99637.28;7072365;28;20222;-87
2023/10/07 06:27:22;;;;;;;7.77;5.70;;;;;;;13.21;58.15;99644.22;7039566;28;20577;-88
2023/10/07 06:30:43;;;;;;;7.63;5.40;;;;;;;13.07;57.54;99641.66;7038944;28;20209;-85
2023/10/07 06:34:12;;;;;;;9.20;5.47;;;;;;;12.12;60.57;99639.69;7035367;28;20380;-84
2023/10/07 06:37:33;;;;;;;7.97;5.40;;;;;;;13.27;58.29;99619.03;7038827;28;20247;-83
2023/10/07 06:40:56;;;;;;;7.20;4.80;;;;;;;14.17;56.50;99622.97;7036529;28;20735;-84
2023/10/07 06:44:18;;;;;;;8.20;5.10;;;;;;;13.78;57.04;99627.53;7041129;28;20228;-85
2023/10/07 06:47:39;;;;;;;6.90;4.27;;;;;;;14.33;56.77;99629.91;7039074;28;20731;-86
2023/10/07 06:51:03;;;;;;;7.60;4.60;;;;;;;15.25;54.45;99634.09;7036356;28;20664;-86
2023/10/07 06:54:32;;;;;;;7.47;4.57;;;;;;;16.15;52.61;99649.13;7041139;28;20626;-85
2023/10/07 06:57:56;;;;;;;7.83;5.30;;;;;;;16.57;50.92;99651.09;7033171;28;20308;-85
2023/10/07 07:01:22;;;;;;;9.63;6.10;;;;;;;16.32;50.43;99608.56;7044101;28;20254;-87
2023/10/07 07:04:43;;;;;;;7.90;5.43;;;;;;;15.65;52.53;99654.66;7037934;28;20233;-87
2023/10/07 07:08:09;;;;;;;6.97;5.03;;;;;;;17.16;49.30;99651.34;7042923;28;20259;-89
2023/10/07 07:11:31;;;;;;;7.63;5.40;;;;;;;17.48;48.08;99676.59;7050460;28;20262;-85
2023/10/07 07:14:59;;;;;;;8.27;6.03;;;;;;;17.71;48.12;99666.66;7043234;28;20372;-85
2023/10/07 07:18:25;;;;;;;9.20;5.20;;;;;;;18.05;47.60;99657.75;7048625;28;20550;-85
2023/10/07 07:21:48;;;;;;;7.00;5.00;;;;;;;19.03;45.60;99670.66;7049672;27;20205;-86
2023/10/07 07:25:18;;;;;;;6.90;5.53;;;;;;;18.33;45.90;99693.50;7045136;28;20229;-83
2023/10/07 07:28:43;;;;;;;7.27;5.17;;;;;;;17.34;48.46;99666.88;7043808;28;20227;-86
2023/10/07 07:32:17;;;;;;;8.83;5.30;;;;;;;17.83;47.84;99691.25;7038422;28;20204;-86
2023/10/07 07:35:40;;;;;;;7.40;5.20;;;;;;;17.79;47.95;99674.53;7042840;28;20230;-85
2023/10/07 07:39:06;;;;;;;8.70;5.20;;;;;;;18.09;48.13;99663.59;7045515;28;20317;-85
2023/10/07 07:42:32;;;;;;;7.93;5.33;;;;;;;17.51;49.73;99665.25;7037752;28;20242;-85
2023/10/07 07:45:57;;;;;;;6.40;4.57;;;;;;;16.96;51.34;99674.41;7045704;28;20561;-86
2023/10/07 07:49:19;;;;;;;8.40;6.00;;;;;;;16.87;52.72;99649.34;7046917;27;20228;-85
2023/10/07 07:52:41;;;;;;;6.97;4.97;;;;;;;17.91;51.97;99661.75;7037489;28;20618;-86
2023/10/07 07:56:03;;;;;;;8.43;5.60;;;;;;;18.84;49.33;99666.41;7032416;28;20361;-85
2023/10/07 07:59:32;;;;;;;8.23;5.27;;;;;;;19.56;47.06;99654.06;7045623;28;20276;-87
2023/10/07 08:02:55;;;;;;;7.97;5.57;;;;;;;19.76;46.40;99655.31;7045307;28;20196;-86
2023/10/07 08:06:20;;;;;;;6.67;5.10;;;;;;;19.76;45.93;99670.94;7047610;28;20228;-82
2023/10/07 08:09:42;;;;;;;8.13;5.30;;;;;;;20.26;44.03;99663.69;7049235;28;20189;-83
2023/10/07 08:13:07;;;;;;;7.90;5.43;;;;;;;21.02;43.41;99663.91;7041242;28;20557;-81
2023/10/07 08:16:30;;;;;;;6.60;5.13;;;;;;;20.81;42.68;99645.47;7049953;28;20703;-82
2023/10/07 08:19:52;;;;;;;8.13;5.53;;;;;;;21.74;42.11;99650.69;7044331;28;20247;-81
2023/10/07 08:23:22;;;;;;;9.03;4.97;;;;;;;22.12;40.96;99656.06;7038295;28;20197;-81
2023/10/07 08:26:48;;;;;;;7.13;5.53;;;;;;;21.01;43.30;99659.50;7060401;27;20236;-82
2023/10/07 08:30:13;;;;;;;8.83;6.00;;;;;;;20.53;45.52;99651.03;7041170;28;20201;-82
2023/10/07 08:33:36;;;;;;;9.50;6.03;;;;;;;20.77;44.81;99637.75;7039634;28;20256;-82
2023/10/07 08:37:00;;;;;;;9.67;5.17;;;;;;;21.18;44.06;99666.66;7038450;28;20258;-83
2023/10/07 08:40:28;;;;;;;9.37;5.57;;;;;;;20.50;43.94;99611.28;7052578;28;20226;-81
2023/10/07 08:44:03;;;;;;;9.53;5.63;;;;;;;20.94;44.53;99661.59;7048000;28;20225;-83
2023/10/07 08:47:26;;;;;;;9.50;5.93;;;;;;;21.46;44.65;99660.97;7046205;28;20284;-83
2023/10/07 08:50:55;;;;;;;8.80;5.30;;;;;;;22.18;42.36;99645.97;7044399;28;20206;-82
2023/10/07 08:54:19;;;;;;;8.63;5.00;;;;;;;22.73;39.36;99639.03;7045453;28;20225;-83
2023/10/07 08:57:43;;;;;;;9.20;5.20;;;;;;;23.26;38.86;99633.38;7044656;28;20952;-83
2023/10/07 09:01:07;;;;;;;6.47;4.87;;;;;;;22.66;39.12;99629.38;7043197;28;20229;-83
2023/10/07 09:04:31;;;;;;;7.03;4.63;;;;;;;23.16;38.17;99652.59;7047331;28;20781;-84
2023/10/07 09:07:56;;;;;;;7.57;5.17;;;;;;;22.67;40.35;99655.78;7048450;28;20697;-83
2023/10/07 09:11:19;;;;;;;6.20;4.90;;;;;;;22.48;38.63;99636.09;7046570;28;20211;-83
2023/10/07 09:14:46;;;;;;;8.37;5.07;;;;;;;22.34;38.82;99639.50;7057953;28;20241;-81
2023/10/07 09:18:10;;;;;;;8.57;6.00;;;;;;;22.72;38.13;99631.91;7057421;28;20598;-82
2023/10/07 09:21:34;;;;;;;8.73;5.67;;;;;;;22.75;39.26;99634.13;7059054;27;20203;-83
2023/10/07 09:25:08;;;;;;;8.00;5.47;;;;;;;22.82;39.65;99639.38;7049523;28;20254;-83
2023/10/07 09:28:31;;;;;;;10.37;6.53;;;;;;;22.88;40.04;99647.41;7049945;28;20198;-84
2023/10/07 09:31:57;;;;;;;10.13;6.07;;;;;;;22.85;39.28;99647.13;7053638;28;20198;-83
2023/10/07 09:35:20;;;;;;;8.93;5.87;;;;;;;22.97;40.19;99647.75;7056429;28;20234;-83
2023/10/07 09:38:42;;;;;;;9.67;6.27;;;;;;;22.22;39.91;99622.34;7056283;28;20224;-82
2023/10/07 09:42:25;;;;;;;10.70;6.13;;;;;;;22.26;40.32;99621.59;7044065;28;20294;-83
2023/10/07 09:45:52;;;;;;;8.47;5.87;;;;;;;22.58;39.89;99635.34;7047365;28;20229;-82
2023/10/07 09:49:15;;;;;;;8.73;4.93;;;;;;;22.63;40.69;99644.50;7047588;28;20198;-82
2023/10/07 09:52:41;;;;;;;8.63;5.33;;;;;;;22.25;40.30;99654.81;7046074;28;20204;-86
2023/10/07 09:56:22;;;;;;;6.80;4.60;;;;;;;22.84;39.67;99650.97;7049782;28;20222;-84
2023/10/07 09:59:56;;;;;;;7.07;5.20;;;;;;;22.45;39.72;99652.28;7047116;28;20252;-83
2023/10/07 10:03:34;;;;;;;8.87;5.13;;;;;;;22.48;40.55;99663.59;7051462;28;20217;-83
2023/10/07 10:07:10;;;;;;;8.90;4.87;;;;;;;22.89;40.00;99660.06;7044400;28;20255;-82
2023/10/07 10:10:32;;;;;;;8.23;4.87;;;;;;;22.33;38.85;99582.88;7046438;28;20226;-83
2023/10/07 10:14:09;;;;;;;8.97;4.93;;;;;;;23.46;37.87;99666.53;7045211;28;20356;-82
2023/10/07 10:17:39;;;;;;;7.97;4.90;;;;;;;23.63;37.77;99661.66;7044051;28;20211;-83
2023/10/07 10:21:05;;;;;;;8.30;5.47;;;;;;;23.75;37.45;99656.75;7042751;28;20227;-84
2023/10/07 10:24:29;;;;;;;8.40;4.63;;;;;;;23.91;36.92;99657.66;7043865;28;20307;-83
2023/10/07 10:28:00;;;;;;;7.33;4.67;;;;;;;24.16;35.64;99649.47;7045333;28;20201;-85
2023/10/07 10:31:24;;;;;;;10.07;5.00;;;;;;;24.55;35.17;99659.72;7036407;28;20653;-85
2023/10/07 10:34:47;;;;;;;8.53;5.50;;;;;;;24.97;34.21;99651.19;7055879;28;20225;-84
2023/10/07 10:38:10;;;;;;;8.57;4.37;;;;;;;24.89;34.59;99649.00;7060003;28;20227;-83
2023/10/07 10:41:34;;;;;;;5.67;4.33;;;;;;;24.60;34.51;99661.69;7034304;28;20250;-85
2023/10/07 10:44:56;;;;;;;7.60;4.57;;;;;;;24.07;33.85;99624.38;7047650;28;20322;-83
2023/10/07 10:48:27;;;;;;;6.80;4.07;;;;;;;24.68;34.89;99620.59;7050049;28;20200;-85
2023/10/07 10:51:54;;;;;;;6.40;4.00;;;;;;;24.76;34.57;99644.88;7045555;27;20209;-86
2023/10/07 10:55:16;;;;;;;5.60;3.83;;;;;;;25.02;33.28;99643.72;7056201;27;20229;-84
2023/10/07 10:58:37;;;;;;;5.50;3.80;;;;;;;24.71;32.40;99611.75;7054886;27;20585;-84
2023/10/07 11:02:01;;;;;;;5.33;4.00;;;;;;;24.86;33.34;99613.69;7048756;27;20678;-81
2023/10/07 11:05:25;;;;;;;6.43;4.17;;;;;;;25.54;32.51;99629.56;7059004;28;20235;-84
2023/10/07 11:08:48;;;;;;;4.77;3.60;;;;;;;24.69;32.24;99536.75;7044359;27;20210;-84
2023/10/07 11:12:12;;;;;;;5.50;3.70;;;;;;;25.02;32.81;99627.16;7046128;28;20199;-84
2023/10/07 11:15:35;;;;;;;5.33;3.73;;;;;;;24.88;33.09;99623.34;7051844;28;20230;-86
2023/10/07 11:18:57;;;;;;;4.90;3.67;;;;;;;24.99;33.44;99624.97;7049322;28;20752;-83
2023/10/07 11:22:19;;;;;;;7.20;3.77;;;;;;;25.25;32.49;99607.28;7051034;28;20219;-86
2023/10/07 11:25:42;;;;;;;6.47;3.53;;;;;;;25.22;32.40;99585.75;7051331;28;20223;-84
2023/10/07 11:29:11;;;;;;;8.13;4.97;;;;;;;25.04;32.99;99586.34;7054989;27;20229;-83
2023/10/07 11:32:34;;;;;;;5.87;4.17;;;;;;;25.12;32.56;99584.94;7060193;27;20649;-84
2023/10/07 11:35:59;;;;;;;5.83;3.57;;;;;;;25.08;32.27;99579.13;7053963;28;20232;-85
2023/10/07 11:39:21;;;;;;;23.70;10.03;;;;;;;25.30;32.62;99607.25;7052837;28;20229;-85
2023/10/07 11:42:44;;;;;;;15.10;8.00;;;;;;;25.37;33.08;99596.75;7061374;27;20211;-84
2023/10/07 11:46:06;;;;;;;7.53;4.60;;;;;;;25.47;32.67;99595.88;7065408;27;20221;-84
2023/10/07 11:49:28;;;;;;;4.40;3.67;;;;;;;25.82;31.83;99595.72;7059543;27;20214;-84
2023/10/07 11:52:50;;;;;;;7.80;4.37;;;;;;;25.69;32.12;99604.63;7059653;27;20206;-85
2023/10/07 11:56:14;;;;;;;5.53;3.93;;;;;;;25.59;32.90;99577.88;7079773;28;20212;-82
2023/10/07 11:59:41;;;;;;;5.77;3.57;;;;;;;25.85;31.94;99607.03;7077090;27;20240;-82
2023/10/07 12:03:06;;;;;;;5.90;4.10;;;;;;;25.91;32.61;99602.34;7069687;28;20202;-83
2023/10/07 12:06:29;;;;;;;6.53;4.77;;;;;;;26.01;32.42;99605.03;7045853;28;20230;-84
2023/10/07 12:09:51;;;;;;;6.97;3.70;;;;;;;26.16;31.38;99611.31;7046693;28;20211;-82
2023/10/07 12:13:14;;;;;;;6.83;4.30;;;;;;;26.02;31.21;99599.22;7063785;28;20208;-83
2023/10/07 12:16:37;;;;;;;7.10;3.63;;;;;;;26.01;32.37;99603.09;7044062;28;20323;-83
2023/10/07 12:19:59;;;;;;;6.27;3.57;;;;;;;26.31;30.67;99602.06;7041673;28;20235;-82
2023/10/07 12:23:20;;;;;;;7.30;4.10;;;;;;;26.05;30.86;99593.13;7055656;27;20208;-82
2023/10/07 12:26:45;;;;;;;7.77;4.10;;;;;;;26.47;30.69;99607.19;7050485;28;20255;-82
2023/10/07 12:30:10;;;;;;;10.87;6.83;;;;;;;26.07;30.46;99601.13;7050147;27;20204;-83
2023/10/07 12:33:33;;;;;;;8.93;6.87;;;;;;;25.77;31.42;99584.72;7058285;27;20219;-85
2023/10/07 12:36:55;;;;;;;8.70;5.50;;;;;;;26.00;31.25;99606.97;7045796;28;20197;-84
2023/10/07 12:40:17;;;;;;;9.83;5.17;;;;;;;25.93;31.26;99600.09;7048501;28;20495;-86
2023/10/07 12:43:39;;;;;;;12.33;5.80;;;;;;;26.05;32.06;99587.59;7035764;28;20224;-84
2023/10/07 12:47:00;;;;;;;6.47;4.13;;;;;;;26.08;30.96;99598.06;7058121;28;20226;-84
2023/10/07 12:50:28;;;;;;;5.83;3.63;;;;;;;25.95;30.75;99598.72;7052015;28;20258;-85
2023/10/07 12:53:51;;;;;;;5.17;3.87;;;;;;;26.16;30.40;99591.94;7049815;28;20231;-84
2023/10/07 12:57:15;;;;;;;5.43;3.87;;;;;;;26.06;31.22;99603.06;7041270;28;20222;-84
2023/10/07 13:00:37;;;;;;;6.23;4.07;;;;;;;26.13;30.36;99575.13;7045152;28;20226;-84
2023/10/07 13:03:58;;;;;;;6.27;3.87;;;;;;;25.94;30.67;99587.94;7043040;28;20271;-84
2023/10/07 13:07:21;;;;;;;4.20;3.60;;;;;;;26.00;30.40;99589.56;7046369;28;20213;-84
2023/10/07 13:10:43;;;;;;;5.07;3.77;;;;;;;25.83;30.32;99576.09;7049571;28;20560;-83
2023/10/07 13:14:04;;;;;;;5.87;3.97;;;;;;;25.94;30.08;99598.97;7052521;28;20216;-83
2023/10/07 13:17:26;;;;;;;5.80;4.13;;;;;;;26.20;29.92;99587.47;7051829;28;20331;-83
2023/10/07 13:20:47;;;;;;;5.53;3.77;;;;;;;26.42;29.66;99574.03;7041444;28;20301;-83
2023/10/07 13:24:11;;;;;;;6.53;3.83;;;;;;;26.42;30.20;99587.88;7043874;28;20228;-83
2023/10/07 13:27:32;;;;;;;5.23;3.67;;;;;;;26.46;29.77;99571.53;7043925;28;20206;-83
2023/10/07 13:30:54;;;;;;;5.10;3.20;;;;;;;26.50;29.39;99586.44;7051939;28;20371;-81
2023/10/07 13:34:17;;;;;;;5.30;3.80;;;;;;;26.60;29.14;99573.34;7036600;28;20246;-84
2023/10/07 13:37:39;;;;;;;4.93;3.60;;;;;;;26.66;29.18;99583.25;7056534;28;20192;-83
2023/10/07 13:41:03;;;;;;;5.03;3.67;;;;;;;26.87;29.26;99539.63;7036463;28;20225;-83
2023/10/07 13:44:25;;;;;;;5.53;3.33;;;;;;;27.07;27.91;99578.16;7034640;28;20231;-83
2023/10/07 13:47:46;;;;;;;5.40;3.87;;;;;;;26.88;28.75;99574.47;7042013;28;20205;-82
2023/10/07 13:51:08;;;;;;;5.33;3.63;;;;;;;26.65;28.73;99566.97;7040411;28;20243;-83
2023/10/07 13:54:38;;;;;;;6.37;3.60;;;;;;;26.65;28.84;99564.22;7036753;28;20755;-83
2023/10/07 13:58:01;;;;;;;5.50;4.00;;;;;;;26.75;29.20;99567.69;7045880;28;20212;-84
2023/10/07 14:01:23;;;;;;;5.50;4.20;;;;;;;27.07;28.58;99567.91;7045963;28;20817;-82
2023/10/07 14:04:47;;;;;;;4.97;3.80;;;;;;;26.98;28.92;99566.06;7046391;28;20259;-85
2023/10/07 14:08:15;;;;;;;5.57;3.70;;;;;;;26.92;28.22;99564.47;7048677;28;20647;-84
2023/10/07 14:11:37;;;;;;;5.17;3.63;;;;;;;27.04;28.44;99567.66;7051196;28;20237;-81
2023/10/07 14:15:03;;;;;;;8.30;4.43;;;;;;;26.72;29.48;99571.03;7044805;28;20263;-84
2023/10/07 14:18:25;;;;;;;5.57;3.87;;;;;;;26.84;29.09;99565.13;7039813;28;20229;-83
2023/10/07 14:21:47;;;;;;;4.87;3.90;;;;;;;26.80;28.70;99566.81;7047948;28;20734;-84
2023/10/07 14:25:09;;;;;;;8.37;4.10;;;;;;;26.76;29.53;99574.03;7047598;28;20593;-82
2023/10/07 14:28:31;;;;;;;8.17;4.10;;;;;;;26.37;30.04;99574.06;7052390;28;20243;-84
2023/10/07 14:31:53;;;;;;;5.70;4.30;;;;;;;26.87;29.51;99564.53;7045475;28;20385;-84
2023/10/07 14:35:15;;;;;;;6.17;4.30;;;;;;;26.98;29.19;99558.59;7050582;28;20245;-82
2023/10/07 14:38:37;;;;;;;5.17;3.87;;;;;;;26.93;28.96;99568.88;7054123;28;20244;-83
2023/10/07 14:42:01;;;;;;;6.63;4.30;;;;;;;26.61;29.62;99561.16;7037720;28;20591;-83
2023/10/07 14:45:23;;;;;;;7.00;3.80;;;;;;;27.00;29.98;99561.06;7042904;28;20231;-82
2023/10/07 14:48:46;;;;;;;6.13;3.97;;;;;;;26.64;29.93;99534.88;7035042;28;20205;-83
2023/10/07 14:52:08;;;;;;;6.83;4.30;;;;;;;26.79;29.90;99565.16;7047667;28;20197;-82
2023/10/07 14:55:32;;;;;;;6.50;4.10;;;;;;;26.53;30.10;99567.31;7034404;28;20253;-82
2023/10/07 14:58:53;;;;;;;5.47;3.80;;;;;;;26.82;30.21;99567.34;7041023;28;20576;-83
2023/10/07 15:02:15;;;;;;;7.23;4.00;;;;;;;26.72;30.37;99568.25;7040242;28;20282;-82
2023/10/07 15:05:38;;;;;;;7.87;4.00;;;;;;;26.53;30.39;99577.53;7039308;28;20725;-82
2023/10/07 15:08:59;;;;;;;8.93;4.10;;;;;;;26.55;30.40;99573.41;7040152;28;20196;-83
2023/10/07 15:12:21;;;;;;;6.17;4.20;;;;;;;26.38;31.38;99581.28;7036504;28;20351;-83
2023/10/07 15:15:45;;;;;;;9.47;3.73;;;;;;;26.67;31.11;99562.78;7047466;28;20702;-82
2023/10/07 15:19:07;;;;;;;7.30;4.23;;;;;;;26.44;30.51;99565.47;7037779;28;20239;-83
2023/10/07 15:22:30;;;;;;;8.07;3.80;;;;;;;26.67;30.73;99581.34;7031414;28;20289;-82
2023/10/07 15:25:52;;;;;;;6.73;3.70;;;;;;;26.70;31.00;99576.03;7055489;28;20282;-82
2023/10/07 15:29:13;;;;;;;5.83;3.67;;;;;;;26.65;29.99;99555.91;7039027;28;20208;-82
2023/10/07 15:32:36;;;;;;;5.63;3.93;;;;;;;26.84;30.42;99571.47;7041463;28;20210;-82
2023/10/07 15:35:59;;;;;;;5.63;4.00;;;;;;;26.83;29.82;99553.22;7038038;28;20256;-82
2023/10/07 15:39:23;;;;;;;6.53;3.27;;;;;;;26.77;30.83;99573.75;7053715;28;20773;-82
2023/10/07 15:42:45;;;;;;;5.30;3.80;;;;;;;26.39;31.72;99568.25;7049171;28;20709;-83
2023/10/07 15:46:08;;;;;;;5.93;4.10;;;;;;;25.90;31.71;99534.38;7044842;28;20224;-81
2023/10/07 15:49:31;;;;;;;6.57;4.20;;;;;;;26.23;31.83;99564.78;7044578;28;20303;-82
2023/10/07 15:52:52;;;;;;;5.93;4.07;;;;;;;26.20;31.60;99570.88;7041850;28;20211;-82
2023/10/07 15:56:17;;;;;;;8.03;5.00;;;;;;;26.01;31.91;99572.69;7046652;28;20251;-82
2023/10/07 15:59:41;;;;;;;6.03;5.00;;;;;;;26.34;33.58;99560.00;7041056;28;20607;-82
2023/10/07 16:03:03;;;;;;;8.53;5.33;;;;;;;26.08;35.61;99562.13;7048871;28;20355;-82